sensor_id;sensor_type;location;lat;lon;timestamp;temperature;humidity
22073;DHT22;11202;50.916;4.698;2023-01-08T00:01:02;10.90;99.90
22073;DHT22;11202;50.916;4.698;2023-01-08T00:03:28;10.90;99.90
22073;DHT22;11202;50.916;4.698;2023-01-08T00:05:54;10.90;99.90
22073;DHT22;11202;50.916;4.698;2023-01-08T00:08:20;10.90;99.90
22073;DHT22;11202;50.916;4.698;2023-01-08T00:10:53;11.00;99.90
22073;DHT22;11202;50.916;4.698;2023-01-08T00:13:19;11.00;99.90
22073;DHT22;11202;50.916;4.698;2023-01-08T00:15:45;11.00;99.90
22073;DHT22;11202;50.916;4.698;2023-01-08T00:18:11;11.00;99.90
22073;DHT22;11202;50.916;4.698;2023-01-08T00:20:40;11.00;99.90
22073;DHT22;11202;50.916;4.698;2023-01-08T00:23:15;11.10;99.90
22073;DHT22;11202;50.916;4.698;2023-01-08T00:25:43;11.10;99.90
22073;DHT22;11202;50.916;4.698;2023-01-08T00:28:09;11.10;99.90
22073;DHT22;11202;50.916;4.698;2023-01-08T00:30:36;11.00;99.90
22073;DHT22;11202;50.916;4.698;2023-01-08T00:33:02;11.00;99.90
22073;DHT22;11202;50.916;4.698;2023-01-08T00:35:28;11.00;99.90
22073;DHT22;11202;50.916;4.698;2023-01-08T00:37:56;11.00;99.90
22073;DHT22;11202;50.916;4.698;2023-01-08T00:40:22;11.00;99.90
22073;DHT22;11202;50.916;4.698;2023-01-08T00:42:47;11.00;99.90
22073;DHT22;11202;50.916;4.698;2023-01-08T00:45:16;11.00;99.90
22073;DHT22;11202;50.916;4.698;2023-01-08T00:47:44;11.00;99.90
22073;DHT22;11202;50.916;4.698;2023-01-08T00:50:10;11.10;99.90
22073;DHT22;11202;50.916;4.698;2023-01-08T00:52:38;11.10;99.90
22073;DHT22;11202;50.916;4.698;2023-01-08T00:55:05;11.10;99.90
22073;DHT22;11202;50.916;4.698;2023-01-08T00:57:35;10.80;99.90
22073;DHT22;11202;50.916;4.698;2023-01-08T01:00:01;10.50;99.90
22073;DHT22;11202;50.916;4.698;2023-01-08T01:02:27;10.30;99.90
22073;DHT22;11202;50.916;4.698;2023-01-08T01:04:53;10.20;99.90
22073;DHT22;11202;50.916;4.698;2023-01-08T01:07:18;10.10;99.90
22073;DHT22;11202;50.916;4.698;2023-01-08T01:09:44;10.00;99.90
22073;DHT22;11202;50.916;4.698;2023-01-08T01:12:13;9.90;99.90
22073;DHT22;11202;50.916;4.698;2023-01-08T01:14:38;9.90;99.90
22073;DHT22;11202;50.916;4.698;2023-01-08T01:17:04;9.80;99.90
22073;DHT22;11202;50.916;4.698;2023-01-08T01:19:30;9.80;99.90
22073;DHT22;11202;50.916;4.698;2023-01-08T01:21:57;9.60;99.90
22073;DHT22;11202;50.916;4.698;2023-01-08T01:24:23;9.30;99.90
22073;DHT22;11202;50.916;4.698;2023-01-08T01:26:55;9.00;99.90
22073;DHT22;11202;50.916;4.698;2023-01-08T01:29:22;8.80;99.90
22073;DHT22;11202;50.916;4.698;2023-01-08T01:31:48;8.80;99.90
22073;DHT22;11202;50.916;4.698;2023-01-08T01:34:16;8.70;99.90
22073;DHT22;11202;50.916;4.698;2023-01-08T01:36:42;8.70;99.90
22073;DHT22;11202;50.916;4.698;2023-01-08T01:39:08;8.60;99.90
22073;DHT22;11202;50.916;4.698;2023-01-08T01:41:45;8.60;99.90
22073;DHT22;11202;50.916;4.698;2023-01-08T01:47:01;8.60;99.90
22073;DHT22;11202;50.916;4.698;2023-01-08T01:49:32;8.60;99.90
22073;DHT22;11202;50.916;4.698;2023-01-08T01:51:59;8.60;99.90
22073;DHT22;11202;50.916;4.698;2023-01-08T01:54:27;8.70;99.90
22073;DHT22;11202;50.916;4.698;2023-01-08T01:56:54;8.70;99.90
22073;DHT22;11202;50.916;4.698;2023-01-08T01:59:20;8.70;99.90
22073;DHT22;11202;50.916;4.698;2023-01-08T02:01:45;8.60;99.90
22073;DHT22;11202;50.916;4.698;2023-01-08T02:04:12;8.50;99.90
22073;DHT22;11202;50.916;4.698;2023-01-08T02:12:46;8.40;99.90
22073;DHT22;11202;50.916;4.698;2023-01-08T02:15:32;8.40;99.90
22073;DHT22;11202;50.916;4.698;2023-01-08T02:18:17;8.40;99.90
22073;DHT22;11202;50.916;4.698;2023-01-08T02:20:56;8.40;99.90
22073;DHT22;11202;50.916;4.698;2023-01-08T02:23:47;8.40;99.90
22073;DHT22;11202;50.916;4.698;2023-01-08T02:29:05;8.50;99.90
22073;DHT22;11202;50.916;4.698;2023-01-08T02:31:32;8.50;99.90
22073;DHT22;11202;50.916;4.698;2023-01-08T02:33:59;8.60;99.90
22073;DHT22;11202;50.916;4.698;2023-01-08T02:52:31;8.90;99.90
22073;DHT22;11202;50.916;4.698;2023-01-08T02:55:01;8.90;99.90
22073;DHT22;11202;50.916;4.698;2023-01-08T02:57:29;9.00;99.90
22073;DHT22;11202;50.916;4.698;2023-01-08T02:59:56;9.00;99.90
22073;DHT22;11202;50.916;4.698;2023-01-08T03:02:24;9.10;99.90
22073;DHT22;11202;50.916;4.698;2023-01-08T03:05:00;9.20;99.90
22073;DHT22;11202;50.916;4.698;2023-01-08T03:07:28;9.20;99.90
22073;DHT22;11202;50.916;4.698;2023-01-08T03:09:54;9.10;99.90
22073;DHT22;11202;50.916;4.698;2023-01-08T03:12:35;9.20;99.90
22073;DHT22;11202;50.916;4.698;2023-01-08T03:15:07;9.30;99.90
22073;DHT22;11202;50.916;4.698;2023-01-08T03:17:36;9.20;99.90
22073;DHT22;11202;50.916;4.698;2023-01-08T03:20:23;8.90;99.90
22073;DHT22;11202;50.916;4.698;2023-01-08T03:22:53;8.70;99.90
22073;DHT22;11202;50.916;4.698;2023-01-08T03:25:22;8.60;99.90
22073;DHT22;11202;50.916;4.698;2023-01-08T03:27:53;8.60;99.90
22073;DHT22;11202;50.916;4.698;2023-01-08T03:30:21;8.50;99.90
22073;DHT22;11202;50.916;4.698;2023-01-08T03:32:48;8.50;99.90
22073;DHT22;11202;50.916;4.698;2023-01-08T03:35:18;8.50;99.90
22073;DHT22;11202;50.916;4.698;2023-01-08T03:37:50;8.60;99.90
22073;DHT22;11202;50.916;4.698;2023-01-08T03:40:27;8.60;99.90
22073;DHT22;11202;50.916;4.698;2023-01-08T03:42:54;8.60;99.90
22073;DHT22;11202;50.916;4.698;2023-01-08T03:45:21;8.60;99.90
22073;DHT22;11202;50.916;4.698;2023-01-08T03:47:48;8.70;99.90
22073;DHT22;11202;50.916;4.698;2023-01-08T03:50:21;8.70;99.90
22073;DHT22;11202;50.916;4.698;2023-01-08T03:52:47;8.70;99.90
22073;DHT22;11202;50.916;4.698;2023-01-08T03:55:13;8.70;99.90
22073;DHT22;11202;50.916;4.698;2023-01-08T03:57:39;8.70;99.90
22073;DHT22;11202;50.916;4.698;2023-01-08T04:00:05;8.70;99.90
22073;DHT22;11202;50.916;4.698;2023-01-08T04:02:31;8.70;99.90
22073;DHT22;11202;50.916;4.698;2023-01-08T04:04:57;8.70;99.90
22073;DHT22;11202;50.916;4.698;2023-01-08T04:07:23;8.70;99.90
22073;DHT22;11202;50.916;4.698;2023-01-08T04:09:49;8.70;99.90
22073;DHT22;11202;50.916;4.698;2023-01-08T04:12:15;8.70;99.90
22073;DHT22;11202;50.916;4.698;2023-01-08T04:14:43;8.70;99.90
22073;DHT22;11202;50.916;4.698;2023-01-08T04:17:12;8.70;99.90
22073;DHT22;11202;50.916;4.698;2023-01-08T04:19:38;8.80;99.90
22073;DHT22;11202;50.916;4.698;2023-01-08T04:22:04;8.70;99.90
22073;DHT22;11202;50.916;4.698;2023-01-08T04:24:30;8.70;99.90
22073;DHT22;11202;50.916;4.698;2023-01-08T04:26:56;8.60;99.90
22073;DHT22;11202;50.916;4.698;2023-01-08T04:29:21;8.60;99.90
22073;DHT22;11202;50.916;4.698;2023-01-08T04:31:47;8.60;99.90
22073;DHT22;11202;50.916;4.698;2023-01-08T04:34:13;8.60;99.90
22073;DHT22;11202;50.916;4.698;2023-01-08T04:36:38;8.60;99.90
22073;DHT22;11202;50.916;4.698;2023-01-08T04:39:04;8.70;99.90
22073;DHT22;11202;50.916;4.698;2023-01-08T04:41:30;8.70;99.90
22073;DHT22;11202;50.916;4.698;2023-01-08T04:43:55;8.70;99.90
22073;DHT22;11202;50.916;4.698;2023-01-08T04:46:21;8.70;99.90
22073;DHT22;11202;50.916;4.698;2023-01-08T04:48:46;8.70;99.90
22073;DHT22;11202;50.916;4.698;2023-01-08T04:51:12;8.60;99.90
22073;DHT22;11202;50.916;4.698;2023-01-08T04:53:38;8.60;99.90
22073;DHT22;11202;50.916;4.698;2023-01-08T04:56:07;8.50;99.90
22073;DHT22;11202;50.916;4.698;2023-01-08T04:58:35;8.50;99.90
22073;DHT22;11202;50.916;4.698;2023-01-08T05:01:12;8.50;99.90
22073;DHT22;11202;50.916;4.698;2023-01-08T05:03:38;8.40;99.90
22073;DHT22;11202;50.916;4.698;2023-01-08T05:06:07;8.40;99.90
22073;DHT22;11202;50.916;4.698;2023-01-08T05:08:32;8.30;99.90
22073;DHT22;11202;50.916;4.698;2023-01-08T05:10:59;8.20;99.90
22073;DHT22;11202;50.916;4.698;2023-01-08T05:13:26;8.10;99.90
22073;DHT22;11202;50.916;4.698;2023-01-08T05:15:53;8.10;99.90
22073;DHT22;11202;50.916;4.698;2023-01-08T05:18:19;8.10;99.90
22073;DHT22;11202;50.916;4.698;2023-01-08T05:20:45;8.00;99.90
22073;DHT22;11202;50.916;4.698;2023-01-08T05:23:11;8.00;99.90
22073;DHT22;11202;50.916;4.698;2023-01-08T05:25:37;8.00;99.90
22073;DHT22;11202;50.916;4.698;2023-01-08T05:28:04;7.90;99.90
22073;DHT22;11202;50.916;4.698;2023-01-08T05:30:31;7.90;99.90
22073;DHT22;11202;50.916;4.698;2023-01-08T05:32:56;7.90;99.90
22073;DHT22;11202;50.916;4.698;2023-01-08T05:35:22;7.90;99.90
22073;DHT22;11202;50.916;4.698;2023-01-08T05:37:48;7.80;99.90
22073;DHT22;11202;50.916;4.698;2023-01-08T05:40:16;7.80;99.90
22073;DHT22;11202;50.916;4.698;2023-01-08T05:42:43;7.70;99.90
22073;DHT22;11202;50.916;4.698;2023-01-08T05:45:09;7.60;99.90
22073;DHT22;11202;50.916;4.698;2023-01-08T05:47:37;7.60;99.90
22073;DHT22;11202;50.916;4.698;2023-01-08T05:50:03;7.60;99.90
22073;DHT22;11202;50.916;4.698;2023-01-08T05:52:28;7.70;99.90
22073;DHT22;11202;50.916;4.698;2023-01-08T05:54:55;7.70;99.90
22073;DHT22;11202;50.916;4.698;2023-01-08T05:57:21;7.70;99.90
22073;DHT22;11202;50.916;4.698;2023-01-08T05:59:47;7.60;99.90
22073;DHT22;11202;50.916;4.698;2023-01-08T06:02:13;7.60;99.90
22073;DHT22;11202;50.916;4.698;2023-01-08T06:04:39;7.50;99.90
22073;DHT22;11202;50.916;4.698;2023-01-08T06:07:05;7.50;99.90
22073;DHT22;11202;50.916;4.698;2023-01-08T06:09:33;7.50;99.90
22073;DHT22;11202;50.916;4.698;2023-01-08T06:12:01;7.40;99.90
22073;DHT22;11202;50.916;4.698;2023-01-08T06:14:27;7.40;99.90
22073;DHT22;11202;50.916;4.698;2023-01-08T06:16:53;7.40;99.90
22073;DHT22;11202;50.916;4.698;2023-01-08T06:19:19;7.40;99.90
22073;DHT22;11202;50.916;4.698;2023-01-08T06:21:45;7.30;99.90
22073;DHT22;11202;50.916;4.698;2023-01-08T06:24:11;7.40;99.90
22073;DHT22;11202;50.916;4.698;2023-01-08T06:26:37;7.40;99.90
22073;DHT22;11202;50.916;4.698;2023-01-08T06:29:05;7.40;99.90
22073;DHT22;11202;50.916;4.698;2023-01-08T06:31:31;7.50;99.90
22073;DHT22;11202;50.916;4.698;2023-01-08T06:33:59;7.40;99.90
22073;DHT22;11202;50.916;4.698;2023-01-08T06:36:25;7.40;99.90
22073;DHT22;11202;50.916;4.698;2023-01-08T06:38:50;7.40;99.90
22073;DHT22;11202;50.916;4.698;2023-01-08T06:41:16;7.40;99.90
22073;DHT22;11202;50.916;4.698;2023-01-08T06:43:44;7.40;99.90
22073;DHT22;11202;50.916;4.698;2023-01-08T06:46:10;7.40;99.90
22073;DHT22;11202;50.916;4.698;2023-01-08T06:48:36;7.40;99.90
22073;DHT22;11202;50.916;4.698;2023-01-08T06:51:03;7.40;99.90
22073;DHT22;11202;50.916;4.698;2023-01-08T06:53:30;7.40;99.90
22073;DHT22;11202;50.916;4.698;2023-01-08T06:55:56;7.40;99.90
22073;DHT22;11202;50.916;4.698;2023-01-08T06:58:23;7.40;99.90
22073;DHT22;11202;50.916;4.698;2023-01-08T07:00:50;7.50;99.90
22073;DHT22;11202;50.916;4.698;2023-01-08T07:03:16;7.50;99.90
22073;DHT22;11202;50.916;4.698;2023-01-08T07:05:42;7.40;99.90
22073;DHT22;11202;50.916;4.698;2023-01-08T07:08:15;7.40;99.90
22073;DHT22;11202;50.916;4.698;2023-01-08T07:10:42;7.50;99.90
22073;DHT22;11202;50.916;4.698;2023-01-08T07:13:10;7.60;99.90
22073;DHT22;11202;50.916;4.698;2023-01-08T07:15:39;7.60;99.90
22073;DHT22;11202;50.916;4.698;2023-01-08T07:18:06;7.60;99.90
22073;DHT22;11202;50.916;4.698;2023-01-08T07:20:35;7.60;99.90
22073;DHT22;11202;50.916;4.698;2023-01-08T07:23:09;7.60;99.90
22073;DHT22;11202;50.916;4.698;2023-01-08T07:25:35;7.60;99.90
22073;DHT22;11202;50.916;4.698;2023-01-08T07:28:03;7.70;99.90
22073;DHT22;11202;50.916;4.698;2023-01-08T07:30:29;7.70;99.90
22073;DHT22;11202;50.916;4.698;2023-01-08T07:33:01;7.70;99.90
22073;DHT22;11202;50.916;4.698;2023-01-08T07:35:27;7.70;99.90
22073;DHT22;11202;50.916;4.698;2023-01-08T07:37:54;7.80;99.90
22073;DHT22;11202;50.916;4.698;2023-01-08T07:40:20;7.90;99.90
22073;DHT22;11202;50.916;4.698;2023-01-08T07:42:46;7.90;99.90
22073;DHT22;11202;50.916;4.698;2023-01-08T07:45:11;7.90;99.90
22073;DHT22;11202;50.916;4.698;2023-01-08T07:47:37;7.90;99.90
22073;DHT22;11202;50.916;4.698;2023-01-08T07:50:03;7.90;99.90
22073;DHT22;11202;50.916;4.698;2023-01-08T07:52:29;8.10;99.90
22073;DHT22;11202;50.916;4.698;2023-01-08T07:54:54;8.10;99.90
22073;DHT22;11202;50.916;4.698;2023-01-08T07:57:20;8.10;99.90
22073;DHT22;11202;50.916;4.698;2023-01-08T07:59:45;8.20;99.90
22073;DHT22;11202;50.916;4.698;2023-01-08T08:02:11;8.20;99.90
22073;DHT22;11202;50.916;4.698;2023-01-08T08:04:37;8.30;99.90
22073;DHT22;11202;50.916;4.698;2023-01-08T08:07:04;8.30;99.90
22073;DHT22;11202;50.916;4.698;2023-01-08T08:09:30;8.30;99.90
22073;DHT22;11202;50.916;4.698;2023-01-08T08:11:56;8.30;99.90
22073;DHT22;11202;50.916;4.698;2023-01-08T08:14:22;8.30;99.90
22073;DHT22;11202;50.916;4.698;2023-01-08T08:16:48;8.30;99.90
22073;DHT22;11202;50.916;4.698;2023-01-08T08:19:14;8.30;99.90
22073;DHT22;11202;50.916;4.698;2023-01-08T08:21:42;8.30;99.90
22073;DHT22;11202;50.916;4.698;2023-01-08T08:24:08;8.40;99.90
22073;DHT22;11202;50.916;4.698;2023-01-08T08:26:34;8.40;99.90
22073;DHT22;11202;50.916;4.698;2023-01-08T08:29:00;8.40;99.90
22073;DHT22;11202;50.916;4.698;2023-01-08T08:31:26;8.50;99.90
22073;DHT22;11202;50.916;4.698;2023-01-08T08:33:52;8.60;99.90
22073;DHT22;11202;50.916;4.698;2023-01-08T08:36:20;8.70;99.90
22073;DHT22;11202;50.916;4.698;2023-01-08T08:38:51;8.80;99.90
22073;DHT22;11202;50.916;4.698;2023-01-08T08:41:17;8.80;99.90
22073;DHT22;11202;50.916;4.698;2023-01-08T08:43:43;8.80;99.90
22073;DHT22;11202;50.916;4.698;2023-01-08T08:46:09;8.80;99.90
22073;DHT22;11202;50.916;4.698;2023-01-08T08:48:35;8.90;99.90
22073;DHT22;11202;50.916;4.698;2023-01-08T08:51:00;8.90;99.90
22073;DHT22;11202;50.916;4.698;2023-01-08T08:53:26;8.90;99.90
22073;DHT22;11202;50.916;4.698;2023-01-08T08:55:57;9.00;99.90
22073;DHT22;11202;50.916;4.698;2023-01-08T08:58:23;8.90;99.90
22073;DHT22;11202;50.916;4.698;2023-01-08T09:00:49;9.10;99.90
22073;DHT22;11202;50.916;4.698;2023-01-08T09:03:15;9.00;99.90
22073;DHT22;11202;50.916;4.698;2023-01-08T09:05:41;9.00;99.90
22073;DHT22;11202;50.916;4.698;2023-01-08T09:08:11;9.10;99.90
22073;DHT22;11202;50.916;4.698;2023-01-08T09:10:39;9.10;99.90
22073;DHT22;11202;50.916;4.698;2023-01-08T09:13:06;9.10;99.90
22073;DHT22;11202;50.916;4.698;2023-01-08T09:15:32;9.20;99.90
22073;DHT22;11202;50.916;4.698;2023-01-08T09:17:58;9.10;99.90
22073;DHT22;11202;50.916;4.698;2023-01-08T09:20:25;9.10;99.90
22073;DHT22;11202;50.916;4.698;2023-01-08T09:22:52;9.10;99.90
22073;DHT22;11202;50.916;4.698;2023-01-08T09:25:18;9.00;99.90
22073;DHT22;11202;50.916;4.698;2023-01-08T09:27:44;9.10;99.90
22073;DHT22;11202;50.916;4.698;2023-01-08T09:30:10;9.00;99.90
22073;DHT22;11202;50.916;4.698;2023-01-08T09:32:36;9.00;99.90
22073;DHT22;11202;50.916;4.698;2023-01-08T09:35:03;9.00;99.90
22073;DHT22;11202;50.916;4.698;2023-01-08T09:37:29;9.00;99.90
22073;DHT22;11202;50.916;4.698;2023-01-08T09:39:55;9.00;99.90
22073;DHT22;11202;50.916;4.698;2023-01-08T09:42:25;9.10;99.90
22073;DHT22;11202;50.916;4.698;2023-01-08T09:44:54;9.20;99.90
22073;DHT22;11202;50.916;4.698;2023-01-08T09:47:45;9.20;99.90
22073;DHT22;11202;50.916;4.698;2023-01-08T09:50:13;9.70;99.90
22073;DHT22;11202;50.916;4.698;2023-01-08T09:52:40;10.50;99.90
22073;DHT22;11202;50.916;4.698;2023-01-08T09:55:15;10.80;99.90
22073;DHT22;11202;50.916;4.698;2023-01-08T09:57:43;11.00;99.90
22073;DHT22;11202;50.916;4.698;2023-01-08T10:00:25;11.00;99.90
22073;DHT22;11202;50.916;4.698;2023-01-08T10:02:54;10.90;99.90
22073;DHT22;11202;50.916;4.698;2023-01-08T10:05:20;10.90;99.90
22073;DHT22;11202;50.916;4.698;2023-01-08T10:07:46;10.80;99.90
22073;DHT22;11202;50.916;4.698;2023-01-08T10:12:43;10.60;99.90
22073;DHT22;11202;50.916;4.698;2023-01-08T10:15:14;10.50;99.90
22073;DHT22;11202;50.916;4.698;2023-01-08T10:17:44;10.50;99.90
22073;DHT22;11202;50.916;4.698;2023-01-08T10:20:17;10.40;99.90
22073;DHT22;11202;50.916;4.698;2023-01-08T10:22:45;10.20;99.90
22073;DHT22;11202;50.916;4.698;2023-01-08T10:25:15;10.20;99.90
22073;DHT22;11202;50.916;4.698;2023-01-08T10:27:46;10.10;99.90
22073;DHT22;11202;50.916;4.698;2023-01-08T10:30:34;10.20;99.90
22073;DHT22;11202;50.916;4.698;2023-01-08T10:33:04;10.00;99.90
22073;DHT22;11202;50.916;4.698;2023-01-08T10:35:34;9.80;99.90
22073;DHT22;11202;50.916;4.698;2023-01-08T10:38:02;9.80;99.90
22073;DHT22;11202;50.916;4.698;2023-01-08T10:40:46;9.80;99.90
22073;DHT22;11202;50.916;4.698;2023-01-08T10:45:39;9.70;99.90
22073;DHT22;11202;50.916;4.698;2023-01-08T10:48:16;9.70;99.90
22073;DHT22;11202;50.916;4.698;2023-01-08T10:50:43;9.90;99.90
22073;DHT22;11202;50.916;4.698;2023-01-08T10:53:27;9.90;99.90
22073;DHT22;11202;50.916;4.698;2023-01-08T10:56:05;10.00;99.90
22073;DHT22;11202;50.916;4.698;2023-01-08T10:58:40;9.90;99.90
22073;DHT22;11202;50.916;4.698;2023-01-08T11:01:27;9.90;99.90
22073;DHT22;11202;50.916;4.698;2023-01-08T11:04:04;9.80;99.90
22073;DHT22;11202;50.916;4.698;2023-01-08T11:06:37;9.90;99.90
22073;DHT22;11202;50.916;4.698;2023-01-08T11:09:21;10.00;99.90
22073;DHT22;11202;50.916;4.698;2023-01-08T11:11:48;10.10;99.90
22073;DHT22;11202;50.916;4.698;2023-01-08T11:14:29;10.20;99.90
22073;DHT22;11202;50.916;4.698;2023-01-08T11:16:59;10.20;99.90
22073;DHT22;11202;50.916;4.698;2023-01-08T11:19:31;10.10;99.90
22073;DHT22;11202;50.916;4.698;2023-01-08T11:22:00;10.20;99.90
22073;DHT22;11202;50.916;4.698;2023-01-08T11:24:37;10.10;99.90
22073;DHT22;11202;50.916;4.698;2023-01-08T11:27:14;10.10;99.90
22073;DHT22;11202;50.916;4.698;2023-01-08T11:35:30;10.10;99.90
22073;DHT22;11202;50.916;4.698;2023-01-08T11:37:59;10.20;99.90
22073;DHT22;11202;50.916;4.698;2023-01-08T11:40:54;10.10;99.90
22073;DHT22;11202;50.916;4.698;2023-01-08T11:49:28;10.20;99.90
22073;DHT22;11202;50.916;4.698;2023-01-08T12:00:10;10.10;99.90
22073;DHT22;11202;50.916;4.698;2023-01-08T12:03:01;10.10;99.90
22073;DHT22;11202;50.916;4.698;2023-01-08T12:13:53;10.20;99.90
22073;DHT22;11202;50.916;4.698;2023-01-08T12:30:05;10.40;99.90
22073;DHT22;11202;50.916;4.698;2023-01-08T12:35:09;10.20;99.90
22073;DHT22;11202;50.916;4.698;2023-01-08T12:37:53;10.30;99.90
22073;DHT22;11202;50.916;4.698;2023-01-08T12:43:23;10.40;99.90
22073;DHT22;11202;50.916;4.698;2023-01-08T12:45:54;10.50;99.90
22073;DHT22;11202;50.916;4.698;2023-01-08T12:48:27;10.50;99.90
22073;DHT22;11202;50.916;4.698;2023-01-08T13:04:18;10.70;99.90
22073;DHT22;11202;50.916;4.698;2023-01-08T13:07:00;10.60;99.90
22073;DHT22;11202;50.916;4.698;2023-01-08T13:09:27;10.60;99.90
22073;DHT22;11202;50.916;4.698;2023-01-08T13:11:55;10.50;99.90
22073;DHT22;11202;50.916;4.698;2023-01-08T13:14:22;10.50;99.90
22073;DHT22;11202;50.916;4.698;2023-01-08T13:17:03;10.70;99.90
22073;DHT22;11202;50.916;4.698;2023-01-08T13:19:38;10.70;99.90
22073;DHT22;11202;50.916;4.698;2023-01-08T13:22:22;10.70;99.90
22073;DHT22;11202;50.916;4.698;2023-01-08T13:24:51;10.80;99.90
22073;DHT22;11202;50.916;4.698;2023-01-08T13:29:48;10.80;99.90
22073;DHT22;11202;50.916;4.698;2023-01-08T13:32:24;10.90;99.90
22073;DHT22;11202;50.916;4.698;2023-01-08T13:37:42;11.00;99.90
22073;DHT22;11202;50.916;4.698;2023-01-08T13:43:09;10.90;99.90
22073;DHT22;11202;50.916;4.698;2023-01-08T13:45:36;10.80;99.90
22073;DHT22;11202;50.916;4.698;2023-01-08T13:48:03;10.80;99.90
22073;DHT22;11202;50.916;4.698;2023-01-08T13:50:29;10.80;99.90
22073;DHT22;11202;50.916;4.698;2023-01-08T13:52:59;10.80;99.90
22073;DHT22;11202;50.916;4.698;2023-01-08T13:58:00;10.90;99.90
22073;DHT22;11202;50.916;4.698;2023-01-08T14:00:45;11.00;99.90
22073;DHT22;11202;50.916;4.698;2023-01-08T14:08:36;10.80;99.90
22073;DHT22;11202;50.916;4.698;2023-01-08T14:11:03;10.80;99.90
22073;DHT22;11202;50.916;4.698;2023-01-08T14:13:30;10.90;99.90
22073;DHT22;11202;50.916;4.698;2023-01-08T14:16:02;10.80;99.90
22073;DHT22;11202;50.916;4.698;2023-01-08T14:18:28;10.70;99.90
22073;DHT22;11202;50.916;4.698;2023-01-08T14:20:54;10.60;99.90
22073;DHT22;11202;50.916;4.698;2023-01-08T14:23:26;10.60;99.90
22073;DHT22;11202;50.916;4.698;2023-01-08T14:25:54;10.50;99.90
22073;DHT22;11202;50.916;4.698;2023-01-08T14:28:21;10.50;99.90
22073;DHT22;11202;50.916;4.698;2023-01-08T14:30:54;10.40;99.90
22073;DHT22;11202;50.916;4.698;2023-01-08T14:33:29;10.40;99.90
22073;DHT22;11202;50.916;4.698;2023-01-08T14:35:56;10.50;99.90
22073;DHT22;11202;50.916;4.698;2023-01-08T14:38:25;10.80;99.90
22073;DHT22;11202;50.916;4.698;2023-01-08T14:43:24;10.90;99.90
22073;DHT22;11202;50.916;4.698;2023-01-08T14:45:51;10.80;99.90
22073;DHT22;11202;50.916;4.698;2023-01-08T14:51:04;10.80;99.90
22073;DHT22;11202;50.916;4.698;2023-01-08T14:53:36;10.70;99.90
22073;DHT22;11202;50.916;4.698;2023-01-08T14:56:04;10.70;99.90
22073;DHT22;11202;50.916;4.698;2023-01-08T14:58:39;10.60;99.90
22073;DHT22;11202;50.916;4.698;2023-01-08T15:01:13;10.60;99.90
22073;DHT22;11202;50.916;4.698;2023-01-08T15:03:41;10.60;99.90
22073;DHT22;11202;50.916;4.698;2023-01-08T15:06:08;10.50;99.90
22073;DHT22;11202;50.916;4.698;2023-01-08T15:08:43;10.50;99.90
22073;DHT22;11202;50.916;4.698;2023-01-08T15:13:45;10.40;99.90
22073;DHT22;11202;50.916;4.698;2023-01-08T15:16:34;10.30;99.90
22073;DHT22;11202;50.916;4.698;2023-01-08T15:19:12;10.30;99.90
22073;DHT22;11202;50.916;4.698;2023-01-08T15:21:38;10.20;99.90
22073;DHT22;11202;50.916;4.698;2023-01-08T15:24:22;10.20;99.90
22073;DHT22;11202;50.916;4.698;2023-01-08T15:26:50;10.20;99.90
22073;DHT22;11202;50.916;4.698;2023-01-08T15:29:26;10.20;99.90
22073;DHT22;11202;50.916;4.698;2023-01-08T15:32:08;10.20;99.90
22073;DHT22;11202;50.916;4.698;2023-01-08T15:34:36;10.30;99.90
22073;DHT22;11202;50.916;4.698;2023-01-08T15:37:02;10.30;99.90
22073;DHT22;11202;50.916;4.698;2023-01-08T15:39:27;10.40;99.90
22073;DHT22;11202;50.916;4.698;2023-01-08T15:41:53;10.30;99.90
22073;DHT22;11202;50.916;4.698;2023-01-08T15:44:38;10.30;99.90
22073;DHT22;11202;50.916;4.698;2023-01-08T15:47:03;10.40;99.90
22073;DHT22;11202;50.916;4.698;2023-01-08T15:49:29;10.40;99.90
22073;DHT22;11202;50.916;4.698;2023-01-08T15:51:55;10.30;99.90
22073;DHT22;11202;50.916;4.698;2023-01-08T15:54:24;10.40;99.90
22073;DHT22;11202;50.916;4.698;2023-01-08T15:56:50;10.30;99.90
22073;DHT22;11202;50.916;4.698;2023-01-08T15:59:16;10.30;99.90
22073;DHT22;11202;50.916;4.698;2023-01-08T16:01:41;10.30;99.90
22073;DHT22;11202;50.916;4.698;2023-01-08T16:04:07;10.30;99.90
22073;DHT22;11202;50.916;4.698;2023-01-08T16:06:35;10.20;99.90
22073;DHT22;11202;50.916;4.698;2023-01-08T16:09:02;10.20;99.90
22073;DHT22;11202;50.916;4.698;2023-01-08T16:11:28;10.20;99.90
22073;DHT22;11202;50.916;4.698;2023-01-08T16:13:56;10.10;99.90
22073;DHT22;11202;50.916;4.698;2023-01-08T16:16:24;10.10;99.90
22073;DHT22;11202;50.916;4.698;2023-01-08T16:18:49;10.20;99.90
22073;DHT22;11202;50.916;4.698;2023-01-08T16:21:16;10.20;99.90
22073;DHT22;11202;50.916;4.698;2023-01-08T16:23:42;10.20;99.90
22073;DHT22;11202;50.916;4.698;2023-01-08T16:26:11;10.10;99.90
22073;DHT22;11202;50.916;4.698;2023-01-08T16:28:37;10.10;99.90
22073;DHT22;11202;50.916;4.698;2023-01-08T16:31:02;10.20;99.90
22073;DHT22;11202;50.916;4.698;2023-01-08T16:33:31;10.20;99.90
22073;DHT22;11202;50.916;4.698;2023-01-08T16:36:01;10.10;99.90
22073;DHT22;11202;50.916;4.698;2023-01-08T16:38:28;10.00;99.90
22073;DHT22;11202;50.916;4.698;2023-01-08T16:40:55;10.00;99.90
22073;DHT22;11202;50.916;4.698;2023-01-08T16:43:25;10.00;99.90
22073;DHT22;11202;50.916;4.698;2023-01-08T16:45:51;10.00;99.90
22073;DHT22;11202;50.916;4.698;2023-01-08T16:48:17;9.90;99.90
22073;DHT22;11202;50.916;4.698;2023-01-08T16:50:44;9.90;99.90
22073;DHT22;11202;50.916;4.698;2023-01-08T16:53:11;10.00;99.90
22073;DHT22;11202;50.916;4.698;2023-01-08T16:55:40;9.80;99.90
22073;DHT22;11202;50.916;4.698;2023-01-08T16:58:08;9.90;99.90
22073;DHT22;11202;50.916;4.698;2023-01-08T17:00:37;9.90;99.90
22073;DHT22;11202;50.916;4.698;2023-01-08T19:32:42;9.40;99.90
22073;DHT22;11202;50.916;4.698;2023-01-08T20:56:21;9.50;99.90
22073;DHT22;11202;50.916;4.698;2023-01-08T20:58:48;9.50;99.90
22073;DHT22;11202;50.916;4.698;2023-01-08T21:01:21;9.40;99.90
22073;DHT22;11202;50.916;4.698;2023-01-08T21:03:53;9.30;99.90
22073;DHT22;11202;50.916;4.698;2023-01-08T21:06:24;9.10;99.90
22073;DHT22;11202;50.916;4.698;2023-01-08T21:08:52;9.00;99.90
22073;DHT22;11202;50.916;4.698;2023-01-08T21:11:18;9.00;99.90
22073;DHT22;11202;50.916;4.698;2023-01-08T21:13:44;8.90;99.90
22073;DHT22;11202;50.916;4.698;2023-01-08T21:16:16;8.90;99.90
22073;DHT22;11202;50.916;4.698;2023-01-08T21:18:42;8.90;99.90
22073;DHT22;11202;50.916;4.698;2023-01-08T21:21:16;9.00;99.90
22073;DHT22;11202;50.916;4.698;2023-01-08T21:23:45;9.00;99.90
22073;DHT22;11202;50.916;4.698;2023-01-08T21:26:11;8.90;99.90
22073;DHT22;11202;50.916;4.698;2023-01-08T21:28:38;8.90;99.90
22073;DHT22;11202;50.916;4.698;2023-01-08T21:31:08;8.90;99.90
22073;DHT22;11202;50.916;4.698;2023-01-08T21:33:35;9.00;99.90
22073;DHT22;11202;50.916;4.698;2023-01-08T21:36:14;9.00;99.90
22073;DHT22;11202;50.916;4.698;2023-01-08T21:38:42;8.90;99.90